createdAt,value
2023-05-22T00:02:28.992Z,101507.72
2023-05-22T00:05:03.386Z,101505.16
2023-05-22T00:07:36.522Z,101504.57
2023-05-22T00:10:10.361Z,101505.61
2023-05-22T00:12:43.285Z,101503.76
2023-05-22T00:15:16.380Z,101504.48
2023-05-22T00:17:49.174Z,101503.89
2023-05-22T00:20:22.075Z,101507.89
2023-05-22T00:22:57.869Z,101509.43
2023-05-22T00:25:30.711Z,101509.37
2023-05-22T00:28:03.769Z,101507.00
2023-05-22T00:30:36.759Z,101505.76
2023-05-22T00:33:09.849Z,101507.08
2023-05-22T00:35:42.625Z,101501.80
2023-05-22T00:38:32.517Z,101499.52
2023-05-22T00:41:07.291Z,101500.73
2023-05-22T00:43:42.161Z,101498.85
2023-05-22T00:46:15.335Z,101498.37
2023-05-22T00:48:48.642Z,101499.65
2023-05-22T00:51:22.811Z,101499.20
2023-05-22T00:53:56.532Z,101498.04
2023-05-22T00:56:30.425Z,101499.88
2023-05-22T00:59:04.486Z,101498.15
2023-05-22T01:01:42.854Z,101499.45
2023-05-22T01:04:18.714Z,101499.73
2023-05-22T01:06:51.851Z,101495.73
2023-05-22T01:09:24.637Z,101498.29
2023-05-22T01:12:07.195Z,101499.96
2023-05-22T01:14:51.330Z,101499.28
2023-05-22T01:17:30.664Z,101499.47
2023-05-22T01:20:18.704Z,101503.55
2023-05-22T01:23:25.746Z,101504.98
2023-05-22T01:26:20.970Z,101505.78
2023-05-22T01:29:13.605Z,101501.63
2023-05-22T01:31:47.810Z,101499.62
2023-05-22T01:34:22.966Z,101497.39
2023-05-22T01:36:57.899Z,101496.05
2023-05-22T01:39:33.198Z,101497.09
2023-05-22T01:42:07.003Z,101495.53
2023-05-22T01:44:40.208Z,101496.19
2023-05-22T01:47:13.854Z,101494.44
2023-05-22T01:49:49.075Z,101494.59
2023-05-22T01:52:34.685Z,101494.07
2023-05-22T01:55:14.851Z,101490.10
2023-05-22T01:57:57.636Z,101482.82
2023-05-22T02:00:33.821Z,101488.00
2023-05-22T02:03:15.260Z,101491.07
2023-05-22T02:05:53.501Z,101485.81
2023-05-22T02:08:27.631Z,101490.12
2023-05-22T02:11:02.265Z,101488.59
2023-05-22T02:13:35.432Z,101485.33
2023-05-22T02:16:09.791Z,101487.55
2023-05-22T02:18:43.900Z,101480.42
2023-05-22T02:21:17.232Z,101479.77
2023-05-22T02:23:50.015Z,101480.80
2023-05-22T02:26:24.240Z,101478.40
2023-05-22T02:28:57.684Z,101478.22
2023-05-22T02:31:31.751Z,101477.01
2023-05-22T02:34:05.626Z,101475.38
2023-05-22T02:36:39.124Z,101477.88
2023-05-22T02:39:11.937Z,101481.37
2023-05-22T02:41:45.365Z,101481.65
2023-05-22T02:44:18.144Z,101478.52
2023-05-22T02:46:51.004Z,101476.96
2023-05-22T02:49:24.426Z,101474.77
2023-05-22T02:51:57.281Z,101476.55
2023-05-22T02:54:30.170Z,101476.14
2023-05-22T02:57:03.753Z,101476.63
2023-05-22T02:59:37.777Z,101474.68
2023-05-22T03:02:12.430Z,101471.67
2023-05-22T03:04:45.517Z,101473.69
2023-05-22T03:07:20.745Z,101474.52
2023-05-22T03:09:53.943Z,101471.38
2023-05-22T03:12:27.015Z,101475.55
2023-05-22T03:14:59.854Z,101468.70
2023-05-22T03:17:32.808Z,101468.06
2023-05-22T03:20:07.340Z,101466.95
2023-05-22T03:22:40.339Z,101469.36
2023-05-22T03:25:13.697Z,101469.59
2023-05-22T03:27:46.715Z,101471.73
2023-05-22T03:30:20.990Z,101476.67
2023-05-22T03:33:02.391Z,101479.23
2023-05-22T03:35:35.624Z,101480.34
2023-05-22T03:38:08.664Z,101483.46
2023-05-22T03:40:41.935Z,101481.13
2023-05-22T03:43:15.953Z,101483.42
2023-05-22T03:45:49.629Z,101485.21
2023-05-22T03:48:23.175Z,101485.30
2023-05-22T03:50:57.604Z,101486.81
2023-05-22T03:53:30.768Z,101486.33
2023-05-22T03:56:03.869Z,101487.56
2023-05-22T03:58:36.831Z,101486.12
2023-05-22T04:01:10.301Z,101483.44
2023-05-22T04:03:43.245Z,101483.21
2023-05-22T04:06:17.944Z,101481.70
2023-05-22T04:08:52.741Z,101477.97
2023-05-22T04:11:25.516Z,101478.45
2023-05-22T04:14:04.814Z,101478.28
2023-05-22T04:16:37.936Z,101479.63
2023-05-22T04:19:11.260Z,101473.14
2023-05-22T04:21:44.938Z,101476.50
2023-05-22T04:24:18.565Z,101474.67
2023-05-22T04:26:51.835Z,101471.52
2023-05-22T04:29:24.933Z,101467.43
2023-05-22T04:31:58.114Z,101468.10
2023-05-22T04:34:31.503Z,101464.59
2023-05-22T04:37:04.268Z,101462.39
2023-05-22T04:39:38.326Z,101460.53
2023-05-22T04:42:11.242Z,101461.13
2023-05-22T04:44:46.484Z,101458.42
2023-05-22T04:47:19.941Z,101459.16
2023-05-22T04:49:53.115Z,101457.93
2023-05-22T04:52:26.354Z,101456.53
2023-05-22T04:55:00.920Z,101455.90
2023-05-22T04:57:34.864Z,101453.66
2023-05-22T05:00:09.444Z,101453.58
2023-05-22T05:02:43.984Z,101450.43
2023-05-22T05:05:17.502Z,101453.86
2023-05-22T05:07:52.357Z,101454.79
2023-05-22T05:10:25.333Z,101453.26
2023-05-22T05:12:58.596Z,101453.60
2023-05-22T05:15:31.707Z,101451.77
2023-05-22T05:18:04.489Z,101449.77
2023-05-22T05:20:38.229Z,101449.89
2023-05-22T05:23:11.538Z,101446.63
2023-05-22T05:25:44.740Z,101443.18
2023-05-22T05:28:18.316Z,101447.52
2023-05-22T05:30:51.168Z,101447.59
2023-05-22T05:33:44.360Z,101448.01
2023-05-22T05:36:40.924Z,101446.39
2023-05-22T05:39:14.311Z,101444.73
2023-05-22T05:41:47.365Z,101448.05
2023-05-22T05:44:20.918Z,101443.66
2023-05-22T05:46:54.947Z,101447.38
2023-05-22T05:49:28.119Z,101451.27
2023-05-22T05:52:01.374Z,101451.16
2023-05-22T05:54:34.447Z,101449.28
2023-05-22T05:57:11.802Z,101446.49
2023-05-22T05:59:44.665Z,101443.98
2023-05-22T06:02:36.310Z,101439.83
2023-05-22T06:05:11.032Z,101437.98
2023-05-22T06:07:45.266Z,101439.78
2023-05-22T06:10:18.199Z,101438.45
2023-05-22T06:13:17.573Z,101431.10
2023-05-22T06:15:50.516Z,101432.20
2023-05-22T06:18:25.801Z,101431.41
2023-05-22T06:20:59.721Z,101434.32
2023-05-22T06:23:33.198Z,101434.03
2023-05-22T06:26:06.495Z,101432.02
2023-05-22T06:28:39.395Z,101432.90
2023-05-22T06:31:12.331Z,101430.55
2023-05-22T06:33:46.684Z,101431.35
2023-05-22T06:36:19.723Z,101430.08
2023-05-22T06:38:55.102Z,101430.20
2023-05-22T06:41:48.335Z,101429.78
2023-05-22T06:44:21.648Z,101428.84
2023-05-22T06:46:59.744Z,101434.66
2023-05-22T06:49:33.000Z,101432.56
2023-05-22T06:52:06.482Z,101433.52
2023-05-22T06:54:43.065Z,101433.21
2023-05-22T06:57:16.371Z,101429.95
2023-05-22T06:59:49.217Z,101427.79
2023-05-22T07:02:55.165Z,101427.73
2023-05-22T07:05:37.173Z,101426.07
2023-05-22T07:08:11.015Z,101425.17
2023-05-22T07:10:44.769Z,101422.45
2023-05-22T07:13:18.488Z,101415.86
2023-05-22T07:15:51.284Z,101415.45
2023-05-22T07:18:24.183Z,101416.37
2023-05-22T07:20:57.189Z,101415.58
2023-05-22T07:23:30.231Z,101416.81
2023-05-22T07:26:03.227Z,101410.53
2023-05-22T07:28:39.290Z,101410.88
2023-05-22T07:31:18.109Z,101406.42
2023-05-22T07:33:51.421Z,101404.52
2023-05-22T07:36:24.686Z,101402.45
2023-05-22T07:38:57.619Z,101396.23
2023-05-22T07:41:30.538Z,101398.38
2023-05-22T07:44:03.714Z,101397.05
2023-05-22T07:46:41.604Z,101395.46
2023-05-22T07:49:20.005Z,101395.88
2023-05-22T07:51:53.797Z,101391.39
2023-05-22T07:54:27.554Z,101391.08
2023-05-22T07:57:03.946Z,101389.07
2023-05-22T07:59:40.202Z,101390.63
2023-05-22T08:02:14.669Z,101385.08
2023-05-22T08:04:48.527Z,101384.36
2023-05-22T08:07:21.393Z,101381.23
2023-05-22T08:09:54.353Z,101382.39
2023-05-22T08:12:27.217Z,101383.64
2023-05-22T08:15:00.124Z,101386.11
2023-05-22T08:17:33.251Z,101386.45
2023-05-22T08:20:07.365Z,101381.75
2023-05-22T08:22:41.674Z,101381.19
2023-05-22T08:25:14.560Z,101377.60
2023-05-22T08:27:47.858Z,101376.29
2023-05-22T08:30:20.781Z,101372.33
2023-05-22T08:32:53.657Z,101373.90
2023-05-22T08:35:26.465Z,101373.52
2023-05-22T08:37:59.280Z,101374.39
2023-05-22T08:40:38.769Z,101373.92
2023-05-22T08:43:12.464Z,101369.37
2023-05-22T08:45:45.977Z,101369.15
2023-05-22T08:48:22.467Z,101368.93
2023-05-22T08:50:59.061Z,101370.86
2023-05-22T08:53:33.138Z,101363.95
2023-05-22T08:56:07.393Z,101362.75
2023-05-22T08:58:41.861Z,101360.70
2023-05-22T09:01:15.368Z,101356.30
2023-05-22T09:03:51.544Z,101352.08
2023-05-22T09:06:24.576Z,101350.39
2023-05-22T09:08:57.858Z,101342.38
2023-05-22T09:11:30.749Z,101340.27
2023-05-22T09:14:12.289Z,101339.11
2023-05-22T09:16:55.027Z,101331.36
2023-05-22T09:19:28.127Z,101329.46
2023-05-22T09:22:07.068Z,101331.15
2023-05-22T09:24:43.929Z,101328.07
2023-05-22T09:27:17.310Z,101325.00
2023-05-22T09:29:55.177Z,101320.48
2023-05-22T09:32:30.848Z,101321.85
2023-05-22T09:35:07.983Z,101320.41
2023-05-22T09:37:41.011Z,101313.91
2023-05-22T09:40:15.442Z,101312.76
2023-05-22T09:42:48.254Z,101313.34
2023-05-22T09:45:25.301Z,101311.20
2023-05-22T09:47:58.126Z,101312.72
2023-05-22T09:50:30.947Z,101312.89
2023-05-22T09:53:05.257Z,101310.13
2023-05-22T09:55:38.520Z,101307.83
2023-05-22T09:58:15.158Z,101300.77
2023-05-22T10:00:50.101Z,101306.88
2023-05-22T10:03:26.664Z,101302.64
2023-05-22T10:06:02.263Z,101304.66
2023-05-22T10:08:43.440Z,101297.29
2023-05-22T10:11:18.496Z,101284.48
2023-05-22T10:13:52.527Z,101278.82
2023-05-22T10:16:26.323Z,101281.23
2023-05-22T10:18:59.545Z,101283.44
2023-05-22T10:21:34.216Z,101282.92
2023-05-22T10:24:09.115Z,101283.48
2023-05-22T10:26:42.746Z,101280.90
2023-05-22T10:29:20.117Z,101277.33
2023-05-22T10:31:59.659Z,101277.92
2023-05-22T10:34:55.602Z,101275.27
2023-05-22T10:37:44.367Z,101269.20
2023-05-22T10:40:20.793Z,101265.06
2023-05-22T10:42:53.037Z,101267.43
2023-05-22T10:45:29.979Z,101262.55
2023-05-22T10:48:10.376Z,101254.92
2023-05-22T10:50:52.933Z,101249.13
2023-05-22T10:53:28.117Z,101246.01
2023-05-22T10:56:10.037Z,101243.27
2023-05-22T10:58:43.615Z,101240.56
2023-05-22T11:01:17.930Z,101239.70
2023-05-22T11:04:02.322Z,101240.11
2023-05-22T11:06:42.627Z,101242.48
2023-05-22T11:09:28.970Z,101240.48
2023-05-22T11:12:19.673Z,101235.60
2023-05-22T11:14:53.209Z,101236.52
2023-05-22T11:17:29.089Z,101231.00
2023-05-22T11:20:06.620Z,101224.36
2023-05-22T11:22:41.165Z,101222.19
2023-05-22T11:25:17.912Z,101225.00
2023-05-22T11:27:51.295Z,101221.12
2023-05-22T11:30:28.667Z,101216.05
2023-05-22T11:33:02.803Z,101215.18
2023-05-22T11:35:37.040Z,101214.58
2023-05-22T11:38:10.451Z,101218.08
2023-05-22T11:40:43.453Z,101216.19
2023-05-22T11:43:16.267Z,101215.20
2023-05-22T11:45:49.019Z,101215.80
2023-05-22T11:48:25.373Z,101218.73
2023-05-22T11:50:58.322Z,101219.29
2023-05-22T11:53:31.450Z,101211.05
2023-05-22T11:56:07.547Z,101207.68
2023-05-22T11:58:40.399Z,101207.79
2023-05-22T12:01:13.210Z,101200.08
2023-05-22T12:03:46.216Z,101199.52
2023-05-22T12:06:20.325Z,101202.77
2023-05-22T12:08:53.335Z,101203.91
2023-05-22T12:11:27.424Z,101201.10
2023-05-22T12:14:06.505Z,101197.36
2023-05-22T12:16:39.769Z,101194.48
2023-05-22T12:19:13.976Z,101188.38
2023-05-22T12:21:46.879Z,101186.95
2023-05-22T12:24:23.620Z,101185.17
2023-05-22T12:26:57.578Z,101187.02
2023-05-22T12:29:30.974Z,101188.30
2023-05-22T12:32:08.588Z,101186.34
2023-05-22T12:34:47.162Z,101178.42
2023-05-22T12:37:25.474Z,101174.69
2023-05-22T12:40:00.183Z,101174.71
2023-05-22T12:42:33.209Z,101175.09
2023-05-22T12:45:07.281Z,101171.27
2023-05-22T12:47:40.178Z,101167.99
2023-05-22T12:50:13.942Z,101165.13
2023-05-22T12:52:46.777Z,101167.86
2023-05-22T12:55:19.765Z,101164.63
2023-05-22T12:57:54.185Z,101158.66
2023-05-22T13:00:27.467Z,101159.20
2023-05-22T13:03:00.454Z,101157.42
2023-05-22T13:05:33.809Z,101154.71
2023-05-22T13:08:06.734Z,101154.53
2023-05-22T13:10:39.600Z,101153.29
2023-05-22T13:13:12.415Z,101147.20
2023-05-22T13:15:45.607Z,101142.72
2023-05-22T13:18:18.614Z,101143.81
2023-05-22T13:20:52.127Z,101138.09
2023-05-22T13:23:25.038Z,101136.30
2023-05-22T13:25:57.854Z,101136.73
2023-05-22T13:28:30.730Z,101135.85
2023-05-22T13:31:03.448Z,101134.60
2023-05-22T13:33:36.272Z,101131.02
2023-05-22T13:36:09.590Z,101128.30
2023-05-22T13:38:42.408Z,101123.98
2023-05-22T13:41:17.836Z,101120.39
2023-05-22T13:43:50.672Z,101116.80
2023-05-22T13:46:24.343Z,101118.61
2023-05-22T13:48:57.152Z,101115.75
2023-05-22T13:51:30.439Z,101113.75
2023-05-22T13:54:03.894Z,101111.59
2023-05-22T13:56:36.691Z,101112.83
2023-05-22T13:59:09.647Z,101110.13
2023-05-22T14:01:42.515Z,101106.51
2023-05-22T14:04:15.385Z,101108.70
2023-05-22T14:06:48.225Z,101108.71
2023-05-22T14:09:21.232Z,101112.33
2023-05-22T14:11:54.140Z,101106.54
2023-05-22T14:14:26.969Z,101103.62
2023-05-22T14:16:59.825Z,101109.04
2023-05-22T14:19:32.723Z,101105.80
2023-05-22T14:22:06.015Z,101104.17
2023-05-22T14:24:38.811Z,101099.84
2023-05-22T14:27:11.567Z,101099.87
2023-05-22T14:29:44.426Z,101098.97
2023-05-22T14:32:17.202Z,101097.52
2023-05-22T14:34:50.092Z,101092.28
2023-05-22T14:37:22.879Z,101090.44
2023-05-22T14:39:55.661Z,101088.27
2023-05-22T14:42:28.501Z,101087.36
2023-05-22T14:45:01.342Z,101087.36
2023-05-22T14:47:34.194Z,101083.73
2023-05-22T14:50:19.253Z,101080.84
2023-05-22T14:52:53.381Z,101082.29
2023-05-22T14:55:28.076Z,101074.02
2023-05-22T14:58:01.094Z,101069.31
2023-05-22T15:00:33.955Z,101069.65
2023-05-22T15:03:06.960Z,101067.68
2023-05-22T15:05:40.021Z,101065.36
2023-05-22T15:08:13.070Z,101065.55
2023-05-22T15:10:45.928Z,101065.92
2023-05-22T15:13:18.741Z,101063.41
2023-05-22T15:15:51.766Z,101061.08
2023-05-22T15:18:24.560Z,101056.91
2023-05-22T15:20:57.758Z,101057.98
2023-05-22T15:23:30.811Z,101058.66
2023-05-22T15:26:04.174Z,101057.55
2023-05-22T15:28:37.033Z,101053.20
2023-05-22T15:31:09.873Z,101050.44
2023-05-22T15:33:42.703Z,101048.23
2023-05-22T15:36:15.595Z,101046.74
2023-05-22T15:38:48.384Z,101045.59
2023-05-22T15:41:21.829Z,101038.68
2023-05-22T15:43:56.318Z,101033.65
2023-05-22T15:46:29.676Z,101032.44
2023-05-22T15:49:02.728Z,101026.36
2023-05-22T15:51:35.878Z,101023.88
2023-05-22T15:54:10.617Z,101025.36
2023-05-22T15:56:43.399Z,101027.59
2023-05-22T15:59:16.177Z,101027.06
2023-05-22T16:01:49.565Z,101023.09
2023-05-22T16:04:22.438Z,101022.38
2023-05-22T16:06:55.316Z,101018.77
2023-05-22T16:09:29.872Z,101016.06
2023-05-22T16:12:05.280Z,101012.47
2023-05-22T16:14:39.852Z,101011.73
2023-05-22T16:17:12.936Z,101009.73
2023-05-22T16:19:45.781Z,101011.31
2023-05-22T16:22:18.554Z,101008.77
2023-05-22T16:24:51.357Z,101009.49
2023-05-22T16:27:25.875Z,101004.95
2023-05-22T16:30:02.484Z,101004.74
2023-05-22T16:32:35.318Z,101007.42
2023-05-22T16:35:12.755Z,101006.87
2023-05-22T16:37:45.811Z,101003.95
2023-05-22T16:40:18.912Z,101001.60
2023-05-22T16:42:51.842Z,101000.13
2023-05-22T16:45:25.128Z,101008.39
2023-05-22T16:47:57.968Z,101006.91
2023-05-22T16:50:30.805Z,101007.23
2023-05-22T16:53:03.695Z,101010.45
2023-05-22T16:55:36.599Z,101009.31
2023-05-22T16:58:11.757Z,101009.59
2023-05-22T17:00:44.710Z,101012.27
2023-05-22T17:03:17.945Z,101009.36
2023-05-22T17:05:51.468Z,101007.70
2023-05-22T17:08:24.254Z,101002.63
2023-05-22T17:10:57.397Z,101004.77
2023-05-22T17:13:30.289Z,101007.23
2023-05-22T17:16:03.153Z,101004.85
2023-05-22T17:18:36.891Z,101008.60
2023-05-22T17:21:10.369Z,101005.85
2023-05-22T17:23:43.153Z,101004.50
2023-05-22T17:26:16.738Z,101005.16
2023-05-22T17:28:49.562Z,101004.39
2023-05-22T17:31:22.964Z,101005.58
2023-05-22T17:33:55.751Z,101012.00
2023-05-22T17:36:28.616Z,101012.64
2023-05-22T17:39:01.689Z,101014.34
2023-05-22T17:41:34.529Z,101015.16
2023-05-22T17:44:07.465Z,101017.39
2023-05-22T17:46:41.403Z,101015.75
2023-05-22T17:49:14.393Z,101016.37
2023-05-22T17:51:47.363Z,101016.13
2023-05-22T17:54:20.208Z,101018.91
2023-05-22T17:56:53.063Z,101013.63
2023-05-22T17:59:26.000Z,101012.11
2023-05-22T18:01:58.889Z,101013.09
2023-05-22T18:04:31.776Z,101010.66
2023-05-22T18:07:04.702Z,101011.46
2023-05-22T18:09:37.984Z,101010.28
2023-05-22T18:12:17.870Z,101008.21
2023-05-22T18:15:04.662Z,101005.01
2023-05-22T18:17:37.589Z,101003.45
2023-05-22T18:20:12.981Z,101001.02
2023-05-22T18:22:45.825Z,101002.83
2023-05-22T18:25:18.651Z,101006.12
2023-05-22T18:27:51.526Z,101004.41
2023-05-22T18:30:24.480Z,101005.38
2023-05-22T18:32:57.295Z,101007.74
2023-05-22T18:35:30.244Z,101007.98
2023-05-22T18:38:04.055Z,101010.36
2023-05-22T18:40:36.998Z,101010.76
2023-05-22T18:43:09.777Z,101008.98
2023-05-22T18:45:42.793Z,101011.55
2023-05-22T18:48:15.654Z,101009.24
2023-05-22T18:50:48.553Z,101008.16
2023-05-22T18:53:23.166Z,101007.11
2023-05-22T18:55:55.994Z,101008.57
2023-05-22T18:58:29.139Z,101010.04
2023-05-22T19:01:02.732Z,101008.46
2023-05-22T19:03:35.957Z,101007.43
2023-05-22T19:06:09.505Z,101008.34
2023-05-22T19:08:42.452Z,101004.44
2023-05-22T19:11:15.263Z,101007.67
2023-05-22T19:13:48.104Z,101009.14
2023-05-22T19:16:21.172Z,101012.55
2023-05-22T19:18:54.143Z,101016.67
2023-05-22T19:21:27.242Z,101015.24
2023-05-22T19:24:00.063Z,101016.52
2023-05-22T19:26:32.953Z,101022.11
2023-05-22T19:29:05.837Z,101022.50
2023-05-22T19:31:39.020Z,101024.13
2023-05-22T19:34:12.023Z,101024.14
2023-05-22T19:36:44.758Z,101028.48
2023-05-22T19:39:17.638Z,101027.08
2023-05-22T19:41:51.728Z,101026.74
2023-05-22T19:44:24.605Z,101028.20
2023-05-22T19:46:57.896Z,101025.89
2023-05-22T19:49:31.821Z,101022.52
2023-05-22T19:52:04.867Z,101025.05
2023-05-22T19:54:37.989Z,101019.91
2023-05-22T19:57:10.971Z,101017.20
2023-05-22T19:59:43.759Z,101016.48
2023-05-22T20:02:16.946Z,101017.23
2023-05-22T20:04:49.913Z,101021.91
2023-05-22T20:07:22.691Z,101023.85
2023-05-22T20:09:55.533Z,101022.56
2023-05-22T20:12:28.441Z,101019.83
2023-05-22T20:15:02.860Z,101020.54
2023-05-22T20:17:36.422Z,101019.25
2023-05-22T20:20:11.081Z,101018.15
2023-05-22T20:22:43.970Z,101018.98
2023-05-22T20:25:17.460Z,101017.16
2023-05-22T20:27:50.424Z,101017.86
2023-05-22T20:30:23.485Z,101012.48
2023-05-22T20:32:56.289Z,101008.00
2023-05-22T20:35:30.788Z,101010.17
2023-05-22T20:38:04.388Z,101012.30
2023-05-22T20:40:38.365Z,101014.45
2023-05-22T20:43:14.673Z,101007.50
2023-05-22T20:45:47.519Z,101009.95
2023-05-22T20:48:20.521Z,101014.75
2023-05-22T20:50:53.330Z,101014.55
2023-05-22T20:53:26.245Z,101016.71
2023-05-22T20:55:59.247Z,101017.60
2023-05-22T20:58:32.075Z,101014.73
2023-05-22T21:01:05.004Z,101015.98
2023-05-22T21:03:38.001Z,101013.34
2023-05-22T21:06:11.205Z,101017.77
2023-05-22T21:08:44.002Z,101014.58
2023-05-22T21:11:18.455Z,101017.77
2023-05-22T21:13:51.288Z,101021.79
2023-05-22T21:16:24.178Z,101024.92
2023-05-22T21:18:57.019Z,101025.79
2023-05-22T21:21:29.908Z,101023.27
2023-05-22T21:24:02.965Z,101022.73
2023-05-22T21:26:36.256Z,101023.31
2023-05-22T21:29:09.198Z,101023.05
2023-05-22T21:31:42.174Z,101018.25
2023-05-22T21:34:14.933Z,101016.68
2023-05-22T21:36:47.801Z,101018.54
2023-05-22T21:39:20.740Z,101015.91
2023-05-22T21:41:53.565Z,101017.91
2023-05-22T21:44:26.328Z,101020.67
2023-05-22T21:46:59.130Z,101020.04
2023-05-22T21:49:33.400Z,101023.84
2023-05-22T21:52:06.874Z,101023.66
2023-05-22T21:54:39.663Z,101025.61
2023-05-22T21:57:12.619Z,101025.23
2023-05-22T21:59:47.655Z,101021.67
2023-05-22T22:02:20.541Z,101025.55
2023-05-22T22:04:53.424Z,101026.64
2023-05-22T22:07:27.378Z,101027.71
2023-05-22T22:10:01.155Z,101022.15
2023-05-22T22:12:34.045Z,101020.33
2023-05-22T22:15:07.697Z,101019.98
2023-05-22T22:17:41.077Z,101019.45
2023-05-22T22:20:14.940Z,101015.01
2023-05-22T22:22:47.842Z,101014.10
2023-05-22T22:25:21.350Z,101016.05
2023-05-22T22:27:54.246Z,101014.79
2023-05-22T22:30:27.823Z,101018.13
2023-05-22T22:33:00.741Z,101019.91
2023-05-22T22:35:34.083Z,101015.49
2023-05-22T22:38:06.834Z,101016.40
2023-05-22T22:40:39.846Z,101017.67
2023-05-22T22:43:13.371Z,101010.22
2023-05-22T22:45:46.530Z,101011.84
2023-05-22T22:48:22.726Z,101015.66
2023-05-22T22:50:55.579Z,101018.16
2023-05-22T22:53:28.923Z,101015.30
2023-05-22T22:56:03.054Z,101017.10
2023-05-22T22:58:36.992Z,101020.30
2023-05-22T23:01:10.035Z,101020.83
2023-05-22T23:03:42.823Z,101020.65
2023-05-22T23:06:17.294Z,101018.70
2023-05-22T23:08:50.277Z,101018.41
2023-05-22T23:11:23.397Z,101012.77
2023-05-22T23:13:56.330Z,101009.79
2023-05-22T23:16:29.194Z,101011.76
2023-05-22T23:19:02.056Z,101009.10
2023-05-22T23:21:35.719Z,101012.73
2023-05-22T23:24:10.261Z,101008.55
2023-05-22T23:26:43.085Z,101003.09
2023-05-22T23:29:15.990Z,100997.08
2023-05-22T23:31:50.748Z,100998.95
2023-05-22T23:34:24.226Z,100998.52
2023-05-22T23:36:57.332Z,100999.52
2023-05-22T23:39:30.115Z,100996.65
2023-05-22T23:42:03.409Z,100992.52
2023-05-22T23:44:36.700Z,100993.33
2023-05-22T23:47:10.382Z,100990.75
2023-05-22T23:49:43.178Z,100992.14
2023-05-22T23:52:16.234Z,100984.80
2023-05-22T23:54:48.962Z,100982.95
2023-05-22T23:57:22.085Z,100978.64
2023-05-22T23:59:54.895Z,100977.70
